createdAt,value
2022-08-01T00:01:36.149Z,19.05
2022-08-01T00:11:44.478Z,19.00
2022-08-01T00:16:48.637Z,18.99
2022-08-01T00:21:52.788Z,18.93
2022-08-01T00:26:56.975Z,18.86
2022-08-01T00:32:01.146Z,18.88
2022-08-01T00:37:05.273Z,18.86
2022-08-01T00:42:09.507Z,18.82
2022-08-01T00:47:13.615Z,18.82
2022-08-01T00:52:17.785Z,18.83
2022-08-01T00:57:39.994Z,18.83
2022-08-01T01:02:26.097Z,18.81
2022-08-01T01:07:30.219Z,18.83
2022-08-01T01:12:38.465Z,18.82
2022-08-01T01:17:51.247Z,18.80
2022-08-01T01:22:42.747Z,18.80
2022-08-01T01:27:45.022Z,18.82
2022-08-01T01:32:49.136Z,18.83
2022-08-01T01:37:51.396Z,18.80
2022-08-01T01:42:55.589Z,18.80
2022-08-01T01:47:59.770Z,18.82
2022-08-01T01:53:03.928Z,18.82
2022-08-01T01:58:08.081Z,18.81
2022-08-01T02:03:12.211Z,18.80
2022-08-01T02:08:16.401Z,18.74
2022-08-01T02:13:21.343Z,18.73
2022-08-01T02:18:24.709Z,18.71
2022-08-01T02:23:28.861Z,18.68
2022-08-01T02:28:33.042Z,18.63
2022-08-01T02:33:37.151Z,18.63
2022-08-01T02:38:41.334Z,18.59
2022-08-01T02:43:45.472Z,18.61
2022-08-01T02:48:49.668Z,18.61
2022-08-01T02:53:53.785Z,18.62
2022-08-01T02:58:58.119Z,18.61
2022-08-01T03:04:02.132Z,18.63
2022-08-01T03:09:06.275Z,18.62
2022-08-01T03:14:10.457Z,18.60
2022-08-01T03:19:14.631Z,18.60
2022-08-01T03:29:21.048Z,18.62
2022-08-01T03:34:23.321Z,18.64
2022-08-01T03:39:27.476Z,18.65
2022-08-01T03:44:29.717Z,18.63
2022-08-01T03:49:34.001Z,18.60
2022-08-01T03:54:36.175Z,18.60
2022-08-01T03:59:40.379Z,18.59
2022-08-01T04:04:44.514Z,18.58
2022-08-01T04:09:48.664Z,18.56
2022-08-01T04:14:52.801Z,18.54
2022-08-01T04:19:56.979Z,18.53
2022-08-01T04:25:01.162Z,18.51
2022-08-01T04:30:05.267Z,18.49
2022-08-01T04:35:23.328Z,18.49
2022-08-01T04:40:13.597Z,18.50
2022-08-01T04:45:17.743Z,18.51
2022-08-01T04:50:21.925Z,18.54
2022-08-01T04:55:26.066Z,18.60
2022-08-01T05:00:30.224Z,18.62
2022-08-01T05:05:34.417Z,18.73
2022-08-01T05:10:38.562Z,18.77
2022-08-01T05:15:42.718Z,18.83
2022-08-01T05:20:47.012Z,18.83
2022-08-01T05:25:57.144Z,18.80
2022-08-01T05:30:53.294Z,18.81
2022-08-01T05:35:57.508Z,18.87
2022-08-01T05:41:01.644Z,18.93
2022-08-01T05:46:05.794Z,18.91
2022-08-01T05:51:09.924Z,18.99
2022-08-01T05:56:14.132Z,19.05
2022-08-01T06:01:18.298Z,19.13
2022-08-01T06:06:25.435Z,19.12
2022-08-01T06:11:26.567Z,19.25
2022-08-01T06:16:30.745Z,19.18
2022-08-01T06:21:34.895Z,19.18
2022-08-01T06:26:39.079Z,19.17
2022-08-01T06:31:43.212Z,19.19
2022-08-01T06:36:47.376Z,19.19
2022-08-01T06:41:51.543Z,19.31
2022-08-01T06:46:55.686Z,19.46
2022-08-01T06:51:59.831Z,19.51
2022-08-01T06:57:04.039Z,19.65
2022-08-01T07:02:08.711Z,19.83
2022-08-01T07:07:12.312Z,20.01
2022-08-01T07:12:14.625Z,20.15
2022-08-01T07:17:18.762Z,20.36
2022-08-01T07:22:23.486Z,20.52
2022-08-01T07:27:25.948Z,20.39
2022-08-01T07:32:27.477Z,20.70
2022-08-01T07:37:47.712Z,20.96
2022-08-01T07:42:35.752Z,20.78
2022-08-01T07:47:39.925Z,20.93
2022-08-01T07:52:44.113Z,21.31
2022-08-01T07:57:48.255Z,21.13
2022-08-01T08:02:52.428Z,20.98
2022-08-01T08:07:56.576Z,20.99
2022-08-01T08:13:00.749Z,20.93
2022-08-01T08:18:03.022Z,20.95
2022-08-01T08:23:07.164Z,21.49
2022-08-01T08:28:11.328Z,21.88
2022-08-01T08:33:15.505Z,21.77
2022-08-01T08:38:19.651Z,21.63
2022-08-01T08:43:23.910Z,21.58
2022-08-01T08:48:28.233Z,21.90
2022-08-01T08:53:34.744Z,22.29
2022-08-01T08:58:36.296Z,22.78
2022-08-01T09:03:40.553Z,22.66
2022-08-01T09:08:44.621Z,22.59
2022-08-01T09:13:48.742Z,22.62
2022-08-01T09:18:53.560Z,22.54
2022-08-01T09:23:55.285Z,22.42
2022-08-01T09:28:57.457Z,22.41
2022-08-01T09:34:01.606Z,22.66
2022-08-01T09:39:05.769Z,23.08
2022-08-01T09:44:08.017Z,22.80
2022-08-01T09:49:12.263Z,22.57
2022-08-01T09:54:16.378Z,22.51
2022-08-01T09:59:20.521Z,22.83
2022-08-01T10:04:24.672Z,23.29
2022-08-01T10:09:35.906Z,23.54
2022-08-01T10:14:32.971Z,23.53
2022-08-01T10:19:37.119Z,23.66
2022-08-01T10:24:41.292Z,23.94
2022-08-01T10:30:05.523Z,24.32
2022-08-01T10:34:49.622Z,24.09
2022-08-01T10:40:08.544Z,23.82
2022-08-01T10:44:57.972Z,23.62
2022-08-01T10:50:02.084Z,23.58
2022-08-01T10:55:06.248Z,23.30
2022-08-01T11:00:10.419Z,23.18
2022-08-01T11:05:14.619Z,23.22
2022-08-01T11:10:18.740Z,23.52
2022-08-01T11:15:30.133Z,23.99
2022-08-01T11:20:27.312Z,24.07
2022-08-01T11:25:58.351Z,23.85
2022-08-01T11:30:33.491Z,23.53
2022-08-01T11:35:37.643Z,23.63
2022-08-01T11:40:39.939Z,24.07
2022-08-01T11:45:44.069Z,24.37
2022-08-01T11:50:48.252Z,25.10
2022-08-01T11:55:52.393Z,25.30
2022-08-01T12:00:56.566Z,24.57
2022-08-01T12:06:00.727Z,24.15
2022-08-01T12:11:04.873Z,24.13
2022-08-01T12:16:09.040Z,24.57
2022-08-01T12:21:13.164Z,24.45
2022-08-01T12:26:29.279Z,24.50
2022-08-01T12:31:21.522Z,24.65
2022-08-01T12:36:25.633Z,24.33
2022-08-01T12:41:29.795Z,24.35
2022-08-01T12:46:33.961Z,24.65
2022-08-01T12:51:38.134Z,24.46
2022-08-01T12:56:42.300Z,24.76
2022-08-01T13:01:46.546Z,25.26
2022-08-01T13:06:50.590Z,25.38
2022-08-01T13:12:04.281Z,25.86
2022-08-01T13:16:58.942Z,25.21
2022-08-01T13:22:03.075Z,24.09
2022-08-01T13:27:05.642Z,23.90
2022-08-01T13:32:09.747Z,23.94
2022-08-01T13:37:11.786Z,24.59
2022-08-01T13:42:19.440Z,25.03
2022-08-01T13:47:22.303Z,25.43
2022-08-01T13:52:24.240Z,24.83
2022-08-01T13:57:36.844Z,24.47
2022-08-01T14:02:32.556Z,24.22
2022-08-01T14:07:38.304Z,24.88
2022-08-01T14:12:40.905Z,25.04
2022-08-01T14:17:47.782Z,24.94
2022-08-01T14:22:49.218Z,25.18
2022-08-01T14:27:53.342Z,25.51
2022-08-01T14:32:57.695Z,24.59
2022-08-01T14:38:01.684Z,24.49
2022-08-01T14:43:05.850Z,24.26
2022-08-01T14:48:10.008Z,23.71
2022-08-01T14:53:14.182Z,23.79
2022-08-01T14:58:18.310Z,23.55
2022-08-01T15:03:22.575Z,23.61
2022-08-01T15:08:26.637Z,23.74
2022-08-01T15:13:30.812Z,23.77
2022-08-01T15:23:39.118Z,23.58
2022-08-01T15:28:41.402Z,23.85
2022-08-01T15:33:45.532Z,23.90
2022-08-01T15:54:00.306Z,25.18
2022-08-01T15:59:02.538Z,25.41
2022-08-01T16:04:06.716Z,26.75
2022-08-01T16:14:15.040Z,26.39
2022-08-01T16:19:19.673Z,25.31
2022-08-01T16:24:23.334Z,24.73
2022-08-01T16:29:27.519Z,24.35
2022-08-01T16:34:31.680Z,24.51
2022-08-01T16:39:35.803Z,24.38
2022-08-01T16:44:39.980Z,23.82
2022-08-01T16:49:44.167Z,23.44
2022-08-01T16:54:48.293Z,23.16
2022-08-01T16:59:52.472Z,23.04
2022-08-01T17:04:56.632Z,23.06
2022-08-01T17:10:00.765Z,23.07
2022-08-01T17:15:04.947Z,23.19
2022-08-01T17:20:09.087Z,23.02
2022-08-01T17:25:15.981Z,22.88
2022-08-01T17:30:17.586Z,23.04
2022-08-01T17:35:21.577Z,22.87
2022-08-01T17:40:39.572Z,22.65
2022-08-01T17:45:29.884Z,22.53
2022-08-01T17:50:32.164Z,22.46
2022-08-01T17:55:53.839Z,22.54
2022-08-01T18:00:38.621Z,22.48
2022-08-01T18:05:42.758Z,22.44
2022-08-01T18:10:46.890Z,22.26
2022-08-01T18:15:51.067Z,22.05
2022-08-01T18:20:55.207Z,21.91
2022-08-01T18:25:59.387Z,21.68
2022-08-01T18:31:03.619Z,21.52
2022-08-01T18:36:07.723Z,21.39
2022-08-01T18:41:11.849Z,21.27
2022-08-01T18:46:16.010Z,21.10
2022-08-01T18:51:20.163Z,20.89
2022-08-01T18:56:24.368Z,20.65
2022-08-01T19:01:28.636Z,20.58
2022-08-01T19:06:32.693Z,20.58
2022-08-01T19:11:36.836Z,20.57
2022-08-01T19:16:41.189Z,20.56
2022-08-01T19:21:45.582Z,20.55
2022-08-01T19:26:49.292Z,20.57
2022-08-01T19:31:53.473Z,20.53
2022-08-01T19:36:57.626Z,20.35
2022-08-01T19:42:01.785Z,20.20
2022-08-01T19:47:04.344Z,20.01
2022-08-01T19:52:08.212Z,19.69
2022-08-01T19:57:10.842Z,19.54
2022-08-01T20:02:14.618Z,19.43
2022-08-01T20:07:18.801Z,19.35
2022-08-01T20:12:22.963Z,19.26
2022-08-01T20:17:27.123Z,19.24
2022-08-01T20:22:31.262Z,19.14
2022-08-01T20:27:35.472Z,19.03
2022-08-01T20:32:39.742Z,18.90
2022-08-01T20:38:05.365Z,18.73
2022-08-01T20:42:47.892Z,18.54
2022-08-01T20:47:52.086Z,18.38
2022-08-01T20:52:56.271Z,18.11
2022-08-01T20:58:03.333Z,17.84
2022-08-01T21:03:04.555Z,17.66
2022-08-01T21:08:08.719Z,17.52
2022-08-01T21:18:17.007Z,17.15
2022-08-01T21:23:21.182Z,16.99
2022-08-01T21:28:25.371Z,16.98
2022-08-01T21:33:29.475Z,16.92
2022-08-01T21:38:33.678Z,16.78
2022-08-01T21:43:37.882Z,16.70
2022-08-01T21:48:40.110Z,16.56
2022-08-01T21:53:47.247Z,16.55
2022-08-01T21:58:46.535Z,16.48
2022-08-01T22:03:50.674Z,16.35
2022-08-01T22:08:54.821Z,16.23
2022-08-01T22:13:59.063Z,16.09
2022-08-01T22:19:03.139Z,16.02
2022-08-01T22:24:07.325Z,15.93
2022-08-01T22:29:11.449Z,15.79
2022-08-01T22:34:15.619Z,15.72
2022-08-01T22:39:19.803Z,15.61
2022-08-01T22:44:25.427Z,15.54
2022-08-01T22:49:28.179Z,15.45
2022-08-01T22:54:32.313Z,15.41
2022-08-01T22:59:42.832Z,15.33
2022-08-01T23:04:40.601Z,15.18
2022-08-01T23:09:53.629Z,15.07
2022-08-01T23:14:48.955Z,15.16
2022-08-01T23:19:53.062Z,15.14
2022-08-01T23:25:04.736Z,15.02
2022-08-01T23:30:01.378Z,14.96
2022-08-01T23:35:05.556Z,14.88
2022-08-01T23:40:09.722Z,14.81
2022-08-01T23:45:11.991Z,14.82
2022-08-01T23:50:16.125Z,14.85
2022-08-01T23:55:18.397Z,14.76
